createdAt,value
2019-01-18T00:04:14.143Z,92.58
2019-01-18T00:06:43.633Z,92.37
2019-01-18T00:09:12.977Z,91.91
2019-01-18T00:12:03.360Z,91.48
2019-01-18T00:18:09.880Z,91.14
2019-01-18T00:23:59.813Z,90.96
2019-01-18T00:26:42.759Z,90.70
2019-01-18T00:29:56.187Z,90.70
2019-01-18T00:38:16.936Z,90.09
2019-01-18T00:44:00.932Z,89.87
2019-01-18T00:47:10.563Z,89.93
2019-01-18T00:50:10.988Z,90.05
2019-01-18T00:52:40.382Z,90.17
2019-01-18T00:55:24.876Z,90.21
2019-01-18T00:58:26.958Z,90.44
2019-01-18T01:01:10.729Z,90.60
2019-01-18T01:03:40.555Z,90.63
2019-01-18T01:06:10.174Z,90.80
2019-01-18T01:08:39.786Z,90.89
2019-01-18T01:11:09.110Z,90.94
2019-01-18T01:13:40.062Z,90.94
2019-01-18T01:19:37.405Z,90.88
2019-01-18T01:22:07.558Z,90.94
2019-01-18T01:24:36.926Z,91.00
2019-01-18T01:27:06.318Z,91.12
2019-01-18T01:29:35.659Z,91.23
2019-01-18T01:32:36.065Z,91.24
2019-01-18T01:35:26.742Z,91.31
2019-01-18T01:41:04.146Z,91.74
2019-01-18T01:43:33.721Z,91.97
2019-01-18T01:46:24.936Z,92.06
2019-01-18T01:49:14.986Z,92.16
2019-01-18T01:52:04.442Z,92.22
2019-01-18T02:01:28.045Z,92.29
2019-01-18T02:04:05.921Z,92.39
2019-01-18T02:19:00.215Z,93.47
2019-01-18T02:21:29.566Z,93.97
2019-01-18T02:23:58.901Z,94.44
2019-01-18T02:26:30.940Z,94.59
2019-01-18T02:29:00.262Z,94.70
2019-01-18T02:31:29.601Z,94.80
2019-01-18T02:33:58.929Z,95.04
2019-01-18T02:36:28.271Z,95.17
2019-01-18T02:38:57.598Z,95.39
2019-01-18T02:41:26.939Z,95.47
2019-01-18T02:43:56.267Z,95.54
2019-01-18T02:46:25.838Z,95.68
2019-01-18T02:48:55.175Z,95.56
2019-01-18T02:51:24.506Z,95.59
2019-01-18T02:53:54.255Z,95.68
2019-01-18T02:56:23.594Z,95.69
2019-01-18T02:58:52.931Z,95.71
2019-01-18T03:01:23.880Z,95.89
2019-01-18T03:03:53.227Z,95.96
2019-01-18T03:06:22.573Z,96.00
2019-01-18T03:09:11.260Z,96.11
2019-01-18T03:14:19.583Z,96.19
2019-01-18T03:16:48.914Z,96.11
2019-01-18T03:19:18.316Z,95.85
2019-01-18T03:21:47.932Z,95.66
2019-01-18T03:24:17.515Z,95.51
2019-01-18T03:26:47.141Z,95.76
2019-01-18T03:29:16.478Z,95.84
2019-01-18T03:31:45.809Z,95.76
2019-01-18T03:34:15.149Z,95.83
2019-01-18T03:36:44.474Z,95.96
2019-01-18T03:39:13.816Z,96.04
2019-01-18T03:41:43.445Z,96.03
2019-01-18T03:44:12.789Z,96.06
2019-01-18T03:46:42.122Z,96.09
2019-01-18T03:49:30.844Z,96.09
2019-01-18T03:52:00.171Z,96.11
2019-01-18T03:54:29.576Z,96.24
2019-01-18T03:56:58.899Z,96.30
2019-01-18T03:59:28.476Z,96.25
2019-01-18T04:01:57.808Z,96.22
2019-01-18T04:04:46.582Z,96.23
2019-01-18T04:07:15.909Z,96.27
2019-01-18T04:09:45.242Z,96.37
2019-01-18T04:12:14.910Z,96.50
2019-01-18T04:14:44.330Z,96.60
2019-01-18T04:17:13.659Z,96.73
2019-01-18T04:19:44.611Z,96.85
2019-01-18T04:22:13.935Z,96.80
2019-01-18T04:24:43.296Z,96.68
2019-01-18T04:27:12.618Z,96.54
2019-01-18T04:29:41.960Z,96.36
2019-01-18T04:32:11.291Z,96.20
2019-01-18T04:35:00.007Z,96.06
2019-01-18T04:37:29.346Z,96.02
2019-01-18T04:39:58.669Z,96.05
2019-01-18T04:42:28.014Z,96.09
2019-01-18T04:44:57.335Z,96.14
2019-01-18T04:47:26.674Z,96.12
2019-01-18T04:49:55.999Z,96.07
2019-01-18T04:52:36.174Z,95.98
2019-01-18T04:58:39.472Z,95.92
2019-01-18T05:01:08.814Z,95.77
2019-01-18T05:03:38.149Z,95.65
2019-01-18T05:07:41.910Z,95.46
2019-01-18T05:10:51.584Z,95.36
2019-01-18T05:13:20.904Z,95.24
2019-01-18T05:15:50.578Z,95.16
2019-01-18T05:18:20.441Z,95.15
2019-01-18T05:20:49.857Z,95.28
2019-01-18T05:23:19.180Z,95.50
2019-01-18T05:25:49.141Z,95.85
2019-01-18T05:28:19.035Z,96.25
2019-01-18T05:30:48.366Z,96.74
2019-01-18T05:33:18.015Z,96.74
2019-01-18T05:35:47.347Z,96.81
2019-01-18T05:38:16.993Z,96.98
2019-01-18T05:43:46.513Z,97.65
2019-01-18T05:46:15.851Z,97.65
2019-01-18T05:48:45.202Z,97.53
2019-01-18T05:51:15.421Z,97.75
2019-01-18T05:53:45.151Z,97.98
2019-01-18T05:56:14.784Z,98.03
2019-01-18T05:58:44.168Z,98.03
2019-01-18T06:01:13.828Z,98.03
2019-01-18T06:03:43.178Z,98.03
2019-01-18T06:06:13.155Z,97.93
2019-01-18T06:08:42.733Z,97.99
2019-01-18T06:11:12.600Z,98.08
2019-01-18T06:13:41.988Z,98.12
2019-01-18T06:16:11.332Z,98.14
2019-01-18T06:18:40.909Z,98.05
2019-01-18T06:21:12.166Z,98.00
2019-01-18T06:23:41.583Z,97.86
2019-01-18T06:26:11.653Z,97.68
2019-01-18T06:28:41.254Z,97.54
2019-01-18T06:31:11.536Z,97.41
2019-01-18T06:33:41.015Z,97.37
2019-01-18T06:36:11.306Z,97.25
2019-01-18T06:38:40.652Z,97.10
2019-01-18T06:44:07.134Z,97.16
2019-01-18T06:46:36.480Z,97.32
2019-01-18T06:51:56.031Z,97.50
2019-01-18T06:54:25.370Z,97.52
2019-01-18T06:56:54.717Z,97.49
2019-01-18T06:59:24.385Z,97.41
2019-01-18T07:01:54.049Z,97.35
2019-01-18T07:04:40.800Z,97.33
2019-01-18T07:07:06.263Z,97.28
2019-01-18T07:09:35.883Z,97.21
2019-01-18T07:12:07.132Z,97.17
2019-01-18T07:14:36.460Z,97.07
2019-01-18T07:17:06.469Z,96.94
2019-01-18T07:19:36.111Z,96.85
2019-01-18T07:22:05.446Z,96.77
2019-01-18T07:24:35.067Z,96.69
2019-01-18T07:27:04.477Z,96.63
2019-01-18T07:29:53.717Z,96.38
2019-01-18T07:32:23.638Z,96.38
2019-01-18T07:34:54.593Z,96.44
2019-01-18T07:37:24.492Z,96.38
2019-01-18T07:39:54.121Z,96.36
2019-01-18T07:42:23.763Z,96.37
2019-01-18T07:44:53.259Z,96.44
2019-01-18T07:47:22.743Z,96.43
2019-01-18T07:49:52.245Z,96.48
2019-01-18T07:52:21.594Z,96.59
2019-01-18T07:54:51.148Z,96.68
2019-01-18T07:57:41.702Z,96.78
2019-01-18T08:00:32.549Z,96.80
2019-01-18T08:03:02.200Z,96.94
2019-01-18T08:05:31.543Z,97.04
2019-01-18T08:08:03.021Z,97.08
2019-01-18T08:10:51.634Z,97.07
2019-01-18T08:13:21.890Z,96.99
2019-01-18T08:15:51.387Z,96.99
2019-01-18T08:18:20.858Z,97.00
2019-01-18T08:20:50.378Z,97.01
2019-01-18T08:23:40.473Z,97.12
2019-01-18T08:26:11.179Z,97.05
2019-01-18T08:28:40.840Z,96.93
2019-01-18T08:31:11.606Z,96.84
2019-01-18T08:33:41.508Z,96.87
2019-01-18T08:36:12.020Z,97.11
2019-01-18T08:38:41.364Z,94.93
2019-01-18T08:41:11.947Z,92.12
2019-01-18T08:43:41.671Z,89.17
2019-01-18T08:46:31.004Z,85.80
2019-01-18T08:49:01.251Z,83.05
2019-01-18T08:51:50.579Z,82.44
2019-01-18T08:54:19.971Z,80.62
2019-01-18T08:56:49.409Z,80.44
2019-01-18T08:59:19.572Z,79.83
2019-01-18T09:01:48.896Z,78.44
2019-01-18T09:04:18.879Z,78.17
2019-01-18T09:07:07.483Z,77.70
2019-01-18T09:09:37.061Z,77.79
2019-01-18T09:12:06.439Z,78.86
2019-01-18T09:14:35.852Z,78.14
2019-01-18T09:17:05.578Z,76.23
2019-01-18T09:19:34.919Z,76.10
2019-01-18T09:22:23.903Z,74.74
2019-01-18T09:25:05.776Z,73.59
2019-01-18T09:27:35.413Z,73.59
2019-01-18T09:33:26.502Z,74.08
2019-01-18T09:35:55.836Z,74.16
2019-01-18T09:41:39.853Z,73.86
2019-01-18T09:44:10.250Z,73.59
2019-01-18T09:46:39.611Z,70.63
2019-01-18T09:49:08.955Z,70.63
2019-01-18T09:51:57.829Z,69.72
2019-01-18T09:54:27.461Z,69.72
2019-01-18T09:56:56.790Z,69.11
2019-01-18T09:59:26.148Z,68.48
2019-01-18T10:01:55.641Z,68.07
2019-01-18T10:04:24.979Z,68.07
2019-01-18T10:06:54.534Z,68.17
2019-01-18T10:09:23.876Z,66.95
2019-01-18T10:11:53.788Z,66.56
2019-01-18T10:14:23.772Z,65.61
2019-01-18T10:16:53.121Z,65.15
2019-01-18T10:19:22.757Z,64.78
2019-01-18T10:21:52.380Z,64.97
2019-01-18T10:24:27.873Z,63.81
2019-01-18T10:26:57.496Z,63.74
2019-01-18T10:29:28.283Z,62.90
2019-01-18T10:32:03.652Z,63.29
2019-01-18T10:34:32.998Z,63.94
2019-01-18T10:37:02.551Z,64.12
2019-01-18T10:39:31.892Z,63.53
2019-01-18T10:42:01.557Z,62.50
2019-01-18T10:44:30.897Z,62.35
2019-01-18T10:47:00.278Z,60.00
2019-01-18T10:49:30.211Z,60.96
2019-01-18T10:51:59.659Z,62.23
2019-01-18T10:54:28.999Z,61.47
2019-01-18T10:56:58.586Z,61.87
2019-01-18T11:02:17.171Z,61.56
2019-01-18T11:04:59.704Z,63.33
2019-01-18T11:07:28.946Z,63.33
2019-01-18T11:09:58.620Z,64.45
2019-01-18T11:12:28.227Z,65.72
2019-01-18T11:14:57.667Z,67.83
2019-01-18T11:17:27.314Z,67.83
2019-01-18T11:26:01.044Z,65.78
2019-01-18T11:28:30.676Z,65.05
2019-01-18T11:31:00.012Z,63.05
2019-01-18T11:33:29.637Z,63.49
2019-01-18T11:38:53.738Z,61.34
2019-01-18T11:41:23.327Z,60.33
2019-01-18T11:43:52.864Z,61.41
2019-01-18T11:46:24.056Z,62.95
2019-01-18T11:48:53.674Z,64.10
2019-01-18T11:51:23.304Z,63.52
2019-01-18T11:53:52.879Z,62.56
2019-01-18T11:56:22.214Z,63.29
2019-01-18T11:58:52.000Z,63.48
2019-01-18T12:01:21.335Z,63.36
2019-01-18T12:03:51.017Z,62.53
2019-01-18T12:07:00.391Z,62.02
2019-01-18T12:09:29.970Z,62.91
2019-01-18T12:11:59.317Z,63.16
2019-01-18T12:14:28.879Z,63.71
2019-01-18T12:16:58.231Z,63.24
2019-01-18T12:19:27.851Z,63.65
2019-01-18T12:21:57.449Z,62.54
2019-01-18T12:24:46.173Z,61.05
2019-01-18T12:27:16.154Z,60.60
2019-01-18T12:29:45.476Z,61.61
2019-01-18T12:32:15.493Z,60.03
2019-01-18T12:34:44.928Z,59.84
2019-01-18T12:37:14.278Z,60.92
2019-01-18T12:39:43.850Z,61.78
2019-01-18T12:42:13.493Z,61.15
2019-01-18T12:44:42.994Z,61.52
2019-01-18T12:47:31.757Z,61.20
2019-01-18T12:50:01.079Z,62.39
2019-01-18T12:52:31.525Z,61.14
2019-01-18T12:55:00.851Z,62.32
2019-01-18T12:57:30.188Z,61.12
2019-01-18T12:59:59.516Z,61.90
2019-01-18T13:02:35.190Z,62.56
2019-01-18T13:08:59.707Z,63.56
2019-01-18T13:11:29.092Z,63.56
2019-01-18T13:13:58.421Z,63.49
2019-01-18T13:16:28.059Z,64.49
2019-01-18T13:18:57.382Z,65.76
2019-01-18T13:21:27.024Z,66.14
2019-01-18T13:23:56.353Z,66.05
2019-01-18T13:26:25.986Z,65.57
2019-01-18T13:28:55.309Z,64.99
2019-01-18T13:31:25.546Z,65.69
2019-01-18T13:34:14.662Z,65.59
2019-01-18T13:36:56.756Z,65.13
2019-01-18T13:39:26.630Z,65.13
2019-01-18T13:41:55.991Z,65.35
2019-01-18T13:44:25.315Z,65.00
2019-01-18T13:46:56.271Z,65.13
2019-01-18T13:49:26.185Z,65.04
2019-01-18T13:51:55.554Z,64.67
2019-01-18T13:54:25.172Z,64.78
2019-01-18T13:56:54.808Z,65.05
2019-01-18T13:59:24.285Z,65.37
2019-01-18T14:01:53.902Z,67.18
2019-01-18T14:04:23.844Z,67.18
2019-01-18T14:07:12.813Z,65.87
2019-01-18T14:09:42.202Z,65.87
2019-01-18T14:12:12.564Z,66.85
2019-01-18T14:14:55.185Z,66.60
2019-01-18T14:17:24.530Z,66.60
2019-01-18T14:20:06.546Z,65.50
2019-01-18T14:22:36.114Z,65.50
2019-01-18T14:28:25.836Z,66.62
2019-01-18T14:30:55.510Z,66.88
2019-01-18T14:33:25.148Z,67.03
2019-01-18T14:35:54.477Z,67.53
2019-01-18T14:38:25.236Z,68.22
2019-01-18T14:41:54.541Z,68.78
2019-01-18T14:44:24.476Z,68.52
2019-01-18T14:46:54.167Z,69.21
2019-01-18T14:49:23.787Z,69.55
2019-01-18T14:51:53.470Z,69.37
2019-01-18T14:54:22.795Z,69.69
2019-01-18T14:57:11.797Z,70.17
2019-01-18T14:59:41.371Z,70.00
2019-01-18T15:02:10.701Z,69.75
2019-01-18T15:11:30.892Z,67.94
2019-01-18T15:14:19.731Z,66.83
2019-01-18T15:16:49.595Z,66.83
2019-01-18T15:19:18.945Z,67.41
2019-01-18T15:21:48.540Z,67.31
2019-01-18T15:24:17.882Z,67.31
2019-01-18T15:26:47.468Z,67.80
2019-01-18T15:29:16.814Z,68.50
2019-01-18T15:31:46.408Z,69.02
2019-01-18T15:34:16.045Z,69.18
2019-01-18T15:36:45.772Z,69.24
2019-01-18T15:39:22.547Z,69.50
2019-01-18T15:41:51.887Z,69.87
2019-01-18T15:44:23.155Z,70.14
2019-01-18T15:46:52.522Z,70.20
2019-01-18T15:49:22.171Z,70.42
2019-01-18T15:51:53.715Z,70.74
2019-01-18T15:54:23.067Z,70.88
2019-01-18T15:56:52.495Z,71.33
2019-01-18T15:59:21.950Z,71.47
2019-01-18T16:01:51.524Z,71.52
2019-01-18T16:04:20.864Z,71.77
2019-01-18T16:06:50.432Z,71.87
2019-01-18T16:09:19.860Z,72.34
2019-01-18T16:11:50.286Z,72.24
2019-01-18T16:14:19.784Z,72.58
2019-01-18T16:16:49.800Z,72.78
2019-01-18T16:19:19.140Z,72.39
2019-01-18T16:21:48.675Z,72.57
2019-01-18T16:24:18.029Z,72.59
2019-01-18T16:26:48.964Z,72.68
2019-01-18T16:29:18.792Z,72.16
2019-01-18T16:31:48.416Z,72.23
2019-01-18T16:34:18.296Z,72.35
2019-01-18T16:36:47.697Z,72.61
2019-01-18T16:39:17.051Z,72.77
2019-01-18T16:41:46.582Z,72.76
2019-01-18T16:44:15.914Z,72.93
2019-01-18T16:46:45.547Z,72.82
2019-01-18T16:49:14.881Z,72.93
2019-01-18T16:51:44.220Z,73.00
2019-01-18T16:54:13.840Z,73.22
2019-01-18T16:56:43.432Z,73.59
2019-01-18T16:59:12.958Z,73.44
2019-01-18T17:01:42.599Z,73.24
2019-01-18T17:04:22.936Z,73.14
2019-01-18T17:06:52.276Z,73.06
2019-01-18T17:09:22.154Z,73.06
2019-01-18T17:11:51.670Z,73.28
2019-01-18T17:14:22.684Z,73.53
2019-01-18T17:16:52.025Z,73.38
2019-01-18T17:19:21.643Z,73.20
2019-01-18T17:21:50.988Z,73.25
2019-01-18T17:24:20.606Z,73.41
2019-01-18T17:26:49.961Z,73.27
2019-01-18T17:29:19.932Z,73.58
2019-01-18T17:31:49.586Z,73.69
2019-01-18T17:34:18.914Z,73.95
2019-01-18T17:36:48.389Z,74.44
2019-01-18T17:46:21.885Z,75.72
2019-01-18T17:49:34.664Z,75.91
2019-01-18T17:55:45.117Z,75.95
2019-01-18T17:58:54.986Z,76.05
2019-01-18T18:02:03.050Z,75.98
2019-01-18T18:05:12.703Z,75.78
2019-01-18T18:14:25.132Z,75.61
2019-01-18T18:17:33.540Z,75.57
2019-01-18T18:20:41.581Z,75.55
2019-01-18T18:23:49.702Z,75.50
2019-01-18T18:26:57.760Z,75.47
2019-01-18T18:33:08.327Z,75.54
2019-01-18T18:39:18.628Z,75.58
2019-01-18T18:45:45.808Z,75.64
2019-01-18T18:48:55.196Z,81.78
2019-01-18T19:04:12.712Z,75.07
2019-01-18T19:07:13.274Z,74.95
2019-01-18T19:10:21.816Z,74.80
2019-01-18T19:13:31.260Z,74.80
2019-01-18T19:16:39.580Z,74.96
2019-01-18T19:19:49.031Z,75.53
2019-01-18T19:28:54.145Z,76.53
2019-01-18T19:35:36.631Z,76.60
2019-01-18T19:38:44.705Z,76.61
2019-01-18T19:51:17.682Z,77.16
2019-01-18T19:54:27.130Z,77.34
2019-01-18T20:01:09.739Z,77.58
2019-01-18T20:04:19.126Z,77.73
2019-01-18T20:07:27.179Z,77.74
2019-01-18T20:17:06.340Z,78.12
2019-01-18T20:23:17.058Z,78.73
2019-01-18T20:26:26.522Z,78.95
2019-01-18T20:29:34.930Z,79.26
2019-01-18T20:35:44.861Z,79.67
2019-01-18T20:38:53.075Z,79.91
2019-01-18T20:42:01.454Z,80.08
2019-01-18T20:51:13.884Z,80.32
2019-01-18T20:54:22.010Z,80.33
2019-01-18T20:57:30.068Z,80.31
2019-01-18T21:00:39.543Z,80.36
2019-01-18T21:03:47.953Z,80.46
2019-01-18T21:06:56.031Z,80.49
2019-01-18T21:10:06.019Z,80.51
2019-01-18T21:13:14.089Z,80.64
2019-01-18T21:19:24.781Z,81.45
2019-01-18T21:22:32.961Z,81.62
2019-01-18T21:25:41.021Z,81.97
2019-01-18T21:28:49.327Z,82.37
2019-01-18T21:31:58.787Z,82.54
2019-01-18T21:35:06.876Z,82.68
2019-01-18T21:38:15.028Z,82.70
2019-01-18T21:41:23.104Z,82.65
2019-01-18T21:44:31.115Z,82.62
2019-01-18T21:47:40.569Z,82.54
2019-01-18T21:53:44.204Z,82.47
2019-01-18T21:59:54.418Z,82.42
2019-01-18T22:03:02.503Z,82.31
2019-01-18T22:06:11.162Z,82.19
2019-01-18T22:09:19.213Z,82.17
2019-01-18T22:12:27.287Z,82.25
2019-01-18T22:28:03.466Z,81.98
2019-01-18T22:31:12.843Z,82.35
2019-01-18T22:37:24.623Z,82.36
2019-01-18T22:40:33.038Z,82.34
2019-01-18T22:46:35.640Z,82.33
2019-01-18T22:49:43.999Z,82.50
2019-01-18T22:52:52.511Z,83.60
2019-01-18T22:56:00.559Z,83.60
2019-01-18T22:59:10.303Z,83.99
2019-01-18T23:05:39.001Z,84.93
2019-01-18T23:08:47.114Z,85.50
2019-01-18T23:11:56.757Z,85.27
2019-01-18T23:15:05.072Z,85.08
2019-01-18T23:18:13.481Z,85.35
2019-01-18T23:21:13.904Z,85.96
2019-01-18T23:24:24.956Z,86.14
2019-01-18T23:27:33.184Z,86.36
2019-01-18T23:33:43.217Z,86.57
2019-01-18T23:36:53.919Z,86.73
2019-01-18T23:43:04.552Z,86.93
2019-01-18T23:46:12.885Z,87.00
2019-01-18T23:49:21.187Z,87.20
2019-01-18T23:52:30.787Z,87.41
2019-01-18T23:55:39.158Z,87.72
2019-01-18T23:58:47.310Z,87.91
